sensor_id;sensor_type;location;lat;lon;timestamp;P1;durP1;ratioP1;P2;durP2;ratioP2
25467;SDS011;13384;24.794;110.498;2022-10-31T00:00:56;14.35;;;10.98;;
25467;SDS011;13384;24.794;110.498;2022-10-31T00:03:52;15.43;;;12.07;;
25467;SDS011;13384;24.794;110.498;2022-10-31T00:06:23;16.55;;;12.30;;
25467;SDS011;13384;24.794;110.498;2022-10-31T00:08:55;15.77;;;12.18;;
25467;SDS011;13384;24.794;110.498;2022-10-31T00:11:28;16.48;;;12.38;;
25467;SDS011;13384;24.794;110.498;2022-10-31T00:14:00;17.00;;;11.80;;
25467;SDS011;13384;24.794;110.498;2022-10-31T00:16:31;17.42;;;12.98;;
25467;SDS011;13384;24.794;110.498;2022-10-31T00:19:03;17.52;;;12.68;;
25467;SDS011;13384;24.794;110.498;2022-10-31T00:21:35;15.13;;;10.68;;
25467;SDS011;13384;24.794;110.498;2022-10-31T00:24:06;18.98;;;12.85;;
25467;SDS011;13384;24.794;110.498;2022-10-31T00:26:57;16.35;;;11.65;;
25467;SDS011;13384;24.794;110.498;2022-10-31T00:29:28;15.60;;;11.98;;
25467;SDS011;13384;24.794;110.498;2022-10-31T00:32:00;15.65;;;11.60;;
25467;SDS011;13384;24.794;110.498;2022-10-31T00:34:31;19.52;;;12.73;;
25467;SDS011;13384;24.794;110.498;2022-10-31T00:37:02;17.48;;;12.55;;
25467;SDS011;13384;24.794;110.498;2022-10-31T00:39:55;17.73;;;12.50;;
25467;SDS011;13384;24.794;110.498;2022-10-31T00:42:26;17.30;;;12.60;;
25467;SDS011;13384;24.794;110.498;2022-10-31T00:44:58;15.65;;;12.07;;
25467;SDS011;13384;24.794;110.498;2022-10-31T00:47:29;21.55;;;13.43;;
25467;SDS011;13384;24.794;110.498;2022-10-31T00:50:13;19.42;;;12.75;;
25467;SDS011;13384;24.794;110.498;2022-10-31T00:52:44;16.90;;;11.48;;
25467;SDS011;13384;24.794;110.498;2022-10-31T00:55:16;19.48;;;12.80;;
25467;SDS011;13384;24.794;110.498;2022-10-31T00:57:47;16.80;;;12.52;;
25467;SDS011;13384;24.794;110.498;2022-10-31T01:00:19;17.60;;;12.98;;
25467;SDS011;13384;24.794;110.498;2022-10-31T01:02:50;15.90;;;11.85;;
25467;SDS011;13384;24.794;110.498;2022-10-31T01:05:21;14.60;;;11.15;;
25467;SDS011;13384;24.794;110.498;2022-10-31T01:07:52;18.98;;;12.23;;
25467;SDS011;13384;24.794;110.498;2022-10-31T01:10:26;17.40;;;12.20;;
25467;SDS011;13384;24.794;110.498;2022-10-31T01:12:59;18.35;;;12.30;;
25467;SDS011;13384;24.794;110.498;2022-10-31T01:15:55;16.70;;;12.18;;
25467;SDS011;13384;24.794;110.498;2022-10-31T01:18:39;17.05;;;12.00;;
25467;SDS011;13384;24.794;110.498;2022-10-31T01:21:15;15.80;;;11.65;;
25467;SDS011;13384;24.794;110.498;2022-10-31T01:23:49;16.08;;;12.07;;
25467;SDS011;13384;24.794;110.498;2022-10-31T01:26:26;16.30;;;12.15;;
25467;SDS011;13384;24.794;110.498;2022-10-31T01:29:00;18.00;;;11.93;;
25467;SDS011;13384;24.794;110.498;2022-10-31T01:31:37;17.42;;;12.00;;
25467;SDS011;13384;24.794;110.498;2022-10-31T01:34:17;16.38;;;12.05;;
25467;SDS011;13384;24.794;110.498;2022-10-31T01:36:49;15.05;;;12.32;;
25467;SDS011;13384;24.794;110.498;2022-10-31T01:39:22;15.60;;;11.50;;
25467;SDS011;13384;24.794;110.498;2022-10-31T01:41:54;17.73;;;12.20;;
25467;SDS011;13384;24.794;110.498;2022-10-31T01:44:52;21.50;;;12.48;;
25467;SDS011;13384;24.794;110.498;2022-10-31T01:47:48;16.13;;;11.63;;
25467;SDS011;13384;24.794;110.498;2022-10-31T01:50:31;16.17;;;12.38;;
25467;SDS011;13384;24.794;110.498;2022-10-31T01:53:06;17.40;;;11.40;;
25467;SDS011;13384;24.794;110.498;2022-10-31T01:55:39;17.30;;;11.82;;
25467;SDS011;13384;24.794;110.498;2022-10-31T01:58:17;15.80;;;11.48;;
25467;SDS011;13384;24.794;110.498;2022-10-31T02:00:54;14.80;;;11.20;;
25467;SDS011;13384;24.794;110.498;2022-10-31T02:03:35;16.73;;;11.77;;
25467;SDS011;13384;24.794;110.498;2022-10-31T02:06:07;15.02;;;11.18;;
25467;SDS011;13384;24.794;110.498;2022-10-31T02:08:46;17.15;;;11.88;;
25467;SDS011;13384;24.794;110.498;2022-10-31T02:11:17;15.85;;;10.45;;
25467;SDS011;13384;24.794;110.498;2022-10-31T02:13:48;14.23;;;11.00;;
25467;SDS011;13384;24.794;110.498;2022-10-31T02:16:22;15.77;;;12.18;;
25467;SDS011;13384;24.794;110.498;2022-10-31T02:19:15;15.65;;;10.98;;
25467;SDS011;13384;24.794;110.498;2022-10-31T02:22:15;17.05;;;11.85;;
25467;SDS011;13384;24.794;110.498;2022-10-31T02:30:59;16.60;;;11.73;;
25467;SDS011;13384;24.794;110.498;2022-10-31T02:33:41;14.32;;;10.85;;
25467;SDS011;13384;24.794;110.498;2022-10-31T02:36:46;14.77;;;11.18;;
25467;SDS011;13384;24.794;110.498;2022-10-31T02:39:29;14.30;;;10.77;;
25467;SDS011;13384;24.794;110.498;2022-10-31T02:42:29;16.52;;;11.73;;
25467;SDS011;13384;24.794;110.498;2022-10-31T02:48:24;17.50;;;11.17;;
25467;SDS011;13384;24.794;110.498;2022-10-31T02:50:59;19.67;;;11.65;;
25467;SDS011;13384;24.794;110.498;2022-10-31T02:53:33;15.73;;;11.18;;
25467;SDS011;13384;24.794;110.498;2022-10-31T02:56:14;14.45;;;10.35;;
25467;SDS011;13384;24.794;110.498;2022-10-31T02:58:54;15.35;;;10.82;;
25467;SDS011;13384;24.794;110.498;2022-10-31T03:04:20;16.15;;;11.38;;
25467;SDS011;13384;24.794;110.498;2022-10-31T03:07:26;16.52;;;11.20;;
25467;SDS011;13384;24.794;110.498;2022-10-31T03:15:41;16.13;;;11.07;;
25467;SDS011;13384;24.794;110.498;2022-10-31T03:18:58;17.13;;;11.27;;
25467;SDS011;13384;24.794;110.498;2022-10-31T03:21:38;14.48;;;10.20;;
25467;SDS011;13384;24.794;110.498;2022-10-31T03:24:12;13.90;;;10.30;;
25467;SDS011;13384;24.794;110.498;2022-10-31T03:26:49;14.98;;;10.65;;
25467;SDS011;13384;24.794;110.498;2022-10-31T03:29:26;16.48;;;11.32;;
25467;SDS011;13384;24.794;110.498;2022-10-31T03:32:06;17.30;;;10.85;;
25467;SDS011;13384;24.794;110.498;2022-10-31T03:34:43;17.02;;;10.73;;
25467;SDS011;13384;24.794;110.498;2022-10-31T03:37:17;16.42;;;10.93;;
25467;SDS011;13384;24.794;110.498;2022-10-31T03:39:50;15.90;;;10.57;;
25467;SDS011;13384;24.794;110.498;2022-10-31T03:42:24;14.15;;;10.68;;
25467;SDS011;13384;24.794;110.498;2022-10-31T03:47:40;19.77;;;11.65;;
25467;SDS011;13384;24.794;110.498;2022-10-31T03:50:13;16.20;;;11.02;;
25467;SDS011;13384;24.794;110.498;2022-10-31T03:52:48;14.75;;;10.90;;
25467;SDS011;13384;24.794;110.498;2022-10-31T03:55:30;14.75;;;10.73;;
25467;SDS011;13384;24.794;110.498;2022-10-31T03:58:21;14.73;;;9.90;;
25467;SDS011;13384;24.794;110.498;2022-10-31T04:01:06;16.52;;;10.80;;
25467;SDS011;13384;24.794;110.498;2022-10-31T04:03:46;15.50;;;10.23;;
25467;SDS011;13384;24.794;110.498;2022-10-31T04:06:36;12.80;;;10.05;;
25467;SDS011;13384;24.794;110.498;2022-10-31T04:09:28;14.05;;;9.95;;
25467;SDS011;13384;24.794;110.498;2022-10-31T04:12:21;13.90;;;9.40;;
25467;SDS011;13384;24.794;110.498;2022-10-31T04:15:09;14.23;;;9.90;;
25467;SDS011;13384;24.794;110.498;2022-10-31T04:18:00;15.60;;;10.73;;
25467;SDS011;13384;24.794;110.498;2022-10-31T04:20:34;15.00;;;10.27;;
25467;SDS011;13384;24.794;110.498;2022-10-31T04:23:18;12.38;;;9.52;;
25467;SDS011;13384;24.794;110.498;2022-10-31T04:25:53;12.88;;;10.13;;
25467;SDS011;13384;24.794;110.498;2022-10-31T04:28:23;15.05;;;9.98;;
25467;SDS011;13384;24.794;110.498;2022-10-31T04:30:54;14.00;;;9.90;;
25467;SDS011;13384;24.794;110.498;2022-10-31T04:33:25;14.57;;;10.38;;
25467;SDS011;13384;24.794;110.498;2022-10-31T04:35:56;13.25;;;9.85;;
25467;SDS011;13384;24.794;110.498;2022-10-31T04:38:49;12.70;;;9.88;;
25467;SDS011;13384;24.794;110.498;2022-10-31T04:41:38;14.63;;;9.77;;
25467;SDS011;13384;24.794;110.498;2022-10-31T04:44:15;12.18;;;9.88;;
25467;SDS011;13384;24.794;110.498;2022-10-31T04:46:50;14.80;;;10.02;;
25467;SDS011;13384;24.794;110.498;2022-10-31T04:49:22;12.93;;;9.40;;
25467;SDS011;13384;24.794;110.498;2022-10-31T04:51:53;12.57;;;9.80;;
25467;SDS011;13384;24.794;110.498;2022-10-31T04:54:24;11.82;;;9.25;;
25467;SDS011;13384;24.794;110.498;2022-10-31T04:57:13;12.32;;;9.63;;
25467;SDS011;13384;24.794;110.498;2022-10-31T04:59:46;16.60;;;9.90;;
25467;SDS011;13384;24.794;110.498;2022-10-31T05:02:17;13.60;;;10.18;;
25467;SDS011;13384;24.794;110.498;2022-10-31T05:04:54;13.23;;;9.85;;
25467;SDS011;13384;24.794;110.498;2022-10-31T05:07:26;13.20;;;10.07;;
25467;SDS011;13384;24.794;110.498;2022-10-31T05:09:57;12.15;;;9.52;;
25467;SDS011;13384;24.794;110.498;2022-10-31T05:12:29;16.08;;;10.13;;
25467;SDS011;13384;24.794;110.498;2022-10-31T05:15:06;14.15;;;9.73;;
25467;SDS011;13384;24.794;110.498;2022-10-31T05:18:30;15.52;;;10.13;;
25467;SDS011;13384;24.794;110.498;2022-10-31T05:21:19;12.95;;;10.05;;
25467;SDS011;13384;24.794;110.498;2022-10-31T05:23:53;13.55;;;9.57;;
25467;SDS011;13384;24.794;110.498;2022-10-31T05:26:24;14.13;;;9.80;;
25467;SDS011;13384;24.794;110.498;2022-10-31T05:28:55;13.45;;;10.07;;
25467;SDS011;13384;24.794;110.498;2022-10-31T05:31:28;14.55;;;10.30;;
25467;SDS011;13384;24.794;110.498;2022-10-31T05:34:32;13.57;;;9.70;;
25467;SDS011;13384;24.794;110.498;2022-10-31T05:37:37;12.07;;;9.52;;
25467;SDS011;13384;24.794;110.498;2022-10-31T05:40:10;11.95;;;9.52;;
25467;SDS011;13384;24.794;110.498;2022-10-31T05:42:43;13.23;;;10.15;;
25467;SDS011;13384;24.794;110.498;2022-10-31T05:45:15;14.23;;;9.30;;
25467;SDS011;13384;24.794;110.498;2022-10-31T05:47:56;11.43;;;9.30;;
25467;SDS011;13384;24.794;110.498;2022-10-31T05:50:49;13.95;;;8.80;;
25467;SDS011;13384;24.794;110.498;2022-10-31T05:53:22;13.50;;;9.50;;
25467;SDS011;13384;24.794;110.498;2022-10-31T05:55:53;11.85;;;9.18;;
25467;SDS011;13384;24.794;110.498;2022-10-31T05:58:25;11.70;;;9.23;;
25467;SDS011;13384;24.794;110.498;2022-10-31T06:01:05;15.88;;;10.18;;
25467;SDS011;13384;24.794;110.498;2022-10-31T06:03:37;16.20;;;9.73;;
25467;SDS011;13384;24.794;110.498;2022-10-31T06:06:09;12.63;;;8.85;;
25467;SDS011;13384;24.794;110.498;2022-10-31T06:08:41;11.45;;;9.13;;
25467;SDS011;13384;24.794;110.498;2022-10-31T06:14:26;11.15;;;8.95;;
25467;SDS011;13384;24.794;110.498;2022-10-31T06:16:57;11.82;;;8.65;;
25467;SDS011;13384;24.794;110.498;2022-10-31T06:19:51;12.60;;;9.05;;
25467;SDS011;13384;24.794;110.498;2022-10-31T06:22:25;11.60;;;9.00;;
25467;SDS011;13384;24.794;110.498;2022-10-31T06:24:59;12.32;;;8.82;;
25467;SDS011;13384;24.794;110.498;2022-10-31T06:27:34;11.18;;;8.60;;
25467;SDS011;13384;24.794;110.498;2022-10-31T06:30:11;12.38;;;9.13;;
25467;SDS011;13384;24.794;110.498;2022-10-31T06:35:15;12.30;;;8.88;;
25467;SDS011;13384;24.794;110.498;2022-10-31T06:37:51;11.25;;;8.25;;
25467;SDS011;13384;24.794;110.498;2022-10-31T06:40:36;14.88;;;9.98;;
25467;SDS011;13384;24.794;110.498;2022-10-31T06:43:20;11.95;;;8.43;;
25467;SDS011;13384;24.794;110.498;2022-10-31T06:46:04;13.48;;;8.98;;
25467;SDS011;13384;24.794;110.498;2022-10-31T06:48:45;11.70;;;8.77;;
25467;SDS011;13384;24.794;110.498;2022-10-31T06:51:19;11.80;;;8.75;;
25467;SDS011;13384;24.794;110.498;2022-10-31T06:53:51;10.82;;;8.65;;
25467;SDS011;13384;24.794;110.498;2022-10-31T06:56:25;12.13;;;9.02;;
25467;SDS011;13384;24.794;110.498;2022-10-31T06:58:58;10.38;;;8.60;;
25467;SDS011;13384;24.794;110.498;2022-10-31T07:01:57;11.35;;;8.70;;
25467;SDS011;13384;24.794;110.498;2022-10-31T07:04:49;9.68;;;8.15;;
25467;SDS011;13384;24.794;110.498;2022-10-31T07:07:19;10.05;;;7.88;;
25467;SDS011;13384;24.794;110.498;2022-10-31T07:09:51;10.98;;;8.70;;
25467;SDS011;13384;24.794;110.498;2022-10-31T07:12:40;11.05;;;8.23;;
25467;SDS011;13384;24.794;110.498;2022-10-31T07:15:11;10.10;;;8.25;;
25467;SDS011;13384;24.794;110.498;2022-10-31T07:17:43;10.15;;;8.02;;
25467;SDS011;13384;24.794;110.498;2022-10-31T07:20:14;11.57;;;8.50;;
25467;SDS011;13384;24.794;110.498;2022-10-31T07:22:45;10.65;;;8.32;;
25467;SDS011;13384;24.794;110.498;2022-10-31T07:25:18;10.90;;;7.97;;
25467;SDS011;13384;24.794;110.498;2022-10-31T07:27:59;11.57;;;8.00;;
25467;SDS011;13384;24.794;110.498;2022-10-31T07:30:53;9.80;;;7.93;;
25467;SDS011;13384;24.794;110.498;2022-10-31T07:33:25;10.88;;;8.40;;
25467;SDS011;13384;24.794;110.498;2022-10-31T07:36:19;13.73;;;7.55;;
25467;SDS011;13384;24.794;110.498;2022-10-31T07:38:52;11.47;;;7.43;;
25467;SDS011;13384;24.794;110.498;2022-10-31T07:41:23;13.60;;;6.80;;
25467;SDS011;13384;24.794;110.498;2022-10-31T07:43:54;9.95;;;7.55;;
25467;SDS011;13384;24.794;110.498;2022-10-31T07:46:43;10.00;;;7.53;;
25467;SDS011;13384;24.794;110.498;2022-10-31T07:49:32;8.25;;;7.28;;
25467;SDS011;13384;24.794;110.498;2022-10-31T07:52:38;8.90;;;7.43;;
25467;SDS011;13384;24.794;110.498;2022-10-31T07:55:35;11.60;;;7.50;;
25467;SDS011;13384;24.794;110.498;2022-10-31T07:58:46;11.30;;;6.97;;
25467;SDS011;13384;24.794;110.498;2022-10-31T08:01:18;9.80;;;7.18;;
25467;SDS011;13384;24.794;110.498;2022-10-31T08:04:47;11.27;;;7.57;;
25467;SDS011;13384;24.794;110.498;2022-10-31T08:10:18;10.10;;;7.07;;
25467;SDS011;13384;24.794;110.498;2022-10-31T08:12:55;11.57;;;7.15;;
25467;SDS011;13384;24.794;110.498;2022-10-31T08:15:28;10.68;;;7.88;;
25467;SDS011;13384;24.794;110.498;2022-10-31T08:18:00;10.30;;;7.43;;
25467;SDS011;13384;24.794;110.498;2022-10-31T08:20:32;11.30;;;7.85;;
25467;SDS011;13384;24.794;110.498;2022-10-31T08:23:04;9.85;;;7.05;;
25467;SDS011;13384;24.794;110.498;2022-10-31T08:25:36;11.52;;;7.75;;
25467;SDS011;13384;24.794;110.498;2022-10-31T08:28:08;9.48;;;6.85;;
25467;SDS011;13384;24.794;110.498;2022-10-31T08:30:43;8.02;;;7.10;;
25467;SDS011;13384;24.794;110.498;2022-10-31T08:33:33;8.93;;;6.47;;
25467;SDS011;13384;24.794;110.498;2022-10-31T08:36:20;9.70;;;7.15;;
25467;SDS011;13384;24.794;110.498;2022-10-31T08:39:17;12.27;;;8.30;;
25467;SDS011;13384;24.794;110.498;2022-10-31T08:41:50;8.43;;;6.80;;
25467;SDS011;13384;24.794;110.498;2022-10-31T08:44:22;10.40;;;6.93;;
25467;SDS011;13384;24.794;110.498;2022-10-31T08:46:53;8.23;;;6.78;;
25467;SDS011;13384;24.794;110.498;2022-10-31T08:49:24;9.20;;;7.70;;
25467;SDS011;13384;24.794;110.498;2022-10-31T08:51:56;9.13;;;6.95;;
25467;SDS011;13384;24.794;110.498;2022-10-31T08:54:31;8.93;;;6.90;;
25467;SDS011;13384;24.794;110.498;2022-10-31T08:57:20;8.93;;;7.00;;
25467;SDS011;13384;24.794;110.498;2022-10-31T09:00:12;10.25;;;6.97;;
25467;SDS011;13384;24.794;110.498;2022-10-31T09:02:58;7.75;;;6.35;;
25467;SDS011;13384;24.794;110.498;2022-10-31T09:05:32;8.73;;;6.97;;
25467;SDS011;13384;24.794;110.498;2022-10-31T09:08:04;8.70;;;6.63;;
25467;SDS011;13384;24.794;110.498;2022-10-31T09:10:45;9.98;;;6.72;;
25467;SDS011;13384;24.794;110.498;2022-10-31T09:13:23;9.25;;;7.15;;
25467;SDS011;13384;24.794;110.498;2022-10-31T09:16:18;9.13;;;7.15;;
25467;SDS011;13384;24.794;110.498;2022-10-31T09:18:49;9.52;;;6.45;;
25467;SDS011;13384;24.794;110.498;2022-10-31T09:21:44;8.75;;;6.47;;
25467;SDS011;13384;24.794;110.498;2022-10-31T09:24:16;9.82;;;6.78;;
25467;SDS011;13384;24.794;110.498;2022-10-31T09:26:48;7.78;;;6.40;;
25467;SDS011;13384;24.794;110.498;2022-10-31T09:29:27;8.40;;;6.65;;
25467;SDS011;13384;24.794;110.498;2022-10-31T09:32:00;13.30;;;6.55;;
25467;SDS011;13384;24.794;110.498;2022-10-31T09:34:37;9.07;;;6.88;;
25467;SDS011;13384;24.794;110.498;2022-10-31T09:37:14;10.15;;;6.45;;
25467;SDS011;13384;24.794;110.498;2022-10-31T09:39:45;9.70;;;7.07;;
25467;SDS011;13384;24.794;110.498;2022-10-31T09:48:27;7.47;;;6.07;;
25467;SDS011;13384;24.794;110.498;2022-10-31T09:54:44;11.13;;;7.25;;
25467;SDS011;13384;24.794;110.498;2022-10-31T09:57:23;8.00;;;6.40;;
25467;SDS011;13384;24.794;110.498;2022-10-31T09:59:59;9.30;;;6.60;;
25467;SDS011;13384;24.794;110.498;2022-10-31T10:02:43;8.10;;;6.13;;
25467;SDS011;13384;24.794;110.498;2022-10-31T10:05:32;7.53;;;5.82;;
25467;SDS011;13384;24.794;110.498;2022-10-31T10:08:18;8.02;;;6.47;;
25467;SDS011;13384;24.794;110.498;2022-10-31T10:11:23;7.93;;;6.88;;
25467;SDS011;13384;24.794;110.498;2022-10-31T10:22:42;7.90;;;6.47;;
25467;SDS011;13384;24.794;110.498;2022-10-31T10:25:33;7.60;;;6.22;;
25467;SDS011;13384;24.794;110.498;2022-10-31T10:28:25;9.38;;;7.13;;
25467;SDS011;13384;24.794;110.498;2022-10-31T10:31:08;8.73;;;7.20;;
25467;SDS011;13384;24.794;110.498;2022-10-31T10:36:41;9.73;;;7.60;;
25467;SDS011;13384;24.794;110.498;2022-10-31T10:42:19;7.27;;;6.23;;
25467;SDS011;13384;24.794;110.498;2022-10-31T10:45:14;7.95;;;6.10;;
25467;SDS011;13384;24.794;110.498;2022-10-31T10:50:53;7.90;;;6.32;;
25467;SDS011;13384;24.794;110.498;2022-10-31T10:59:33;11.65;;;8.52;;
25467;SDS011;13384;24.794;110.498;2022-10-31T11:02:23;12.63;;;9.05;;
25467;SDS011;13384;24.794;110.498;2022-10-31T11:05:18;14.65;;;9.75;;
25467;SDS011;13384;24.794;110.498;2022-10-31T11:07:51;11.98;;;8.68;;
25467;SDS011;13384;24.794;110.498;2022-10-31T11:10:22;13.57;;;8.90;;
25467;SDS011;13384;24.794;110.498;2022-10-31T11:13:14;12.45;;;8.60;;
25467;SDS011;13384;24.794;110.498;2022-10-31T11:15:55;11.98;;;8.57;;
25467;SDS011;13384;24.794;110.498;2022-10-31T11:18:30;13.95;;;9.02;;
25467;SDS011;13384;24.794;110.498;2022-10-31T11:21:04;16.10;;;9.70;;
25467;SDS011;13384;24.794;110.498;2022-10-31T11:23:36;11.82;;;8.45;;
25467;SDS011;13384;24.794;110.498;2022-10-31T11:26:16;13.35;;;8.90;;
25467;SDS011;13384;24.794;110.498;2022-10-31T11:28:57;12.20;;;8.03;;
25467;SDS011;13384;24.794;110.498;2022-10-31T11:31:29;12.75;;;8.93;;
25467;SDS011;13384;24.794;110.498;2022-10-31T11:34:03;11.60;;;8.57;;
25467;SDS011;13384;24.794;110.498;2022-10-31T11:36:44;14.10;;;9.13;;
25467;SDS011;13384;24.794;110.498;2022-10-31T11:39:24;14.18;;;8.93;;
25467;SDS011;13384;24.794;110.498;2022-10-31T11:41:59;12.32;;;8.43;;
25467;SDS011;13384;24.794;110.498;2022-10-31T11:44:37;16.00;;;8.25;;
25467;SDS011;13384;24.794;110.498;2022-10-31T11:47:16;11.68;;;8.15;;
25467;SDS011;13384;24.794;110.498;2022-10-31T11:49:50;12.82;;;8.50;;
25467;SDS011;13384;24.794;110.498;2022-10-31T11:52:30;13.18;;;8.35;;
25467;SDS011;13384;24.794;110.498;2022-10-31T11:55:14;12.88;;;8.55;;
25467;SDS011;13384;24.794;110.498;2022-10-31T11:57:48;11.63;;;8.18;;
25467;SDS011;13384;24.794;110.498;2022-10-31T12:05:58;10.80;;;7.97;;
25467;SDS011;13384;24.794;110.498;2022-10-31T12:08:31;11.15;;;8.38;;
25467;SDS011;13384;24.794;110.498;2022-10-31T12:28:46;11.43;;;8.40;;
25467;SDS011;13384;24.794;110.498;2022-10-31T12:34:26;12.07;;;8.43;;
25467;SDS011;13384;24.794;110.498;2022-10-31T12:37:25;11.23;;;7.70;;
25467;SDS011;13384;24.794;110.498;2022-10-31T12:46:18;11.18;;;8.75;;
25467;SDS011;13384;24.794;110.498;2022-10-31T12:54:47;11.45;;;8.05;;
25467;SDS011;13384;24.794;110.498;2022-10-31T12:57:34;10.32;;;7.68;;
25467;SDS011;13384;24.794;110.498;2022-10-31T13:00:14;9.98;;;7.78;;
25467;SDS011;13384;24.794;110.498;2022-10-31T13:03:41;10.43;;;7.93;;
25467;SDS011;13384;24.794;110.498;2022-10-31T13:05:51;12.13;;;8.43;;
25467;SDS011;13384;24.794;110.498;2022-10-31T13:08:28;11.05;;;7.78;;
25467;SDS011;13384;24.794;110.498;2022-10-31T13:11:33;9.88;;;7.65;;
25467;SDS011;13384;24.794;110.498;2022-10-31T13:14:23;13.45;;;8.40;;
25467;SDS011;13384;24.794;110.498;2022-10-31T13:16:56;10.70;;;8.18;;
25467;SDS011;13384;24.794;110.498;2022-10-31T13:19:30;10.63;;;8.13;;
25467;SDS011;13384;24.794;110.498;2022-10-31T13:22:20;13.23;;;8.10;;
25467;SDS011;13384;24.794;110.498;2022-10-31T13:30:38;12.75;;;8.18;;
25467;SDS011;13384;24.794;110.498;2022-10-31T13:33:14;11.27;;;8.48;;
25467;SDS011;13384;24.794;110.498;2022-10-31T13:38:49;11.82;;;8.15;;
25467;SDS011;13384;24.794;110.498;2022-10-31T13:44:14;11.30;;;8.00;;
25467;SDS011;13384;24.794;110.498;2022-10-31T13:46:54;11.23;;;8.80;;
25467;SDS011;13384;24.794;110.498;2022-10-31T13:54:47;13.00;;;8.93;;
25467;SDS011;13384;24.794;110.498;2022-10-31T14:00:25;10.75;;;8.30;;
25467;SDS011;13384;24.794;110.498;2022-10-31T14:03:18;9.85;;;8.23;;
25467;SDS011;13384;24.794;110.498;2022-10-31T14:06:10;12.20;;;8.90;;
25467;SDS011;13384;24.794;110.498;2022-10-31T14:08:46;9.88;;;7.90;;
25467;SDS011;13384;24.794;110.498;2022-10-31T14:11:24;10.75;;;8.07;;
25467;SDS011;13384;24.794;110.498;2022-10-31T14:14:08;12.80;;;8.88;;
25467;SDS011;13384;24.794;110.498;2022-10-31T14:16:42;11.98;;;8.52;;
25467;SDS011;13384;24.794;110.498;2022-10-31T14:19:21;10.88;;;8.27;;
25467;SDS011;13384;24.794;110.498;2022-10-31T14:21:53;11.35;;;8.30;;
25467;SDS011;13384;24.794;110.498;2022-10-31T14:26:57;10.93;;;7.93;;
25467;SDS011;13384;24.794;110.498;2022-10-31T14:29:54;9.25;;;7.05;;
25467;SDS011;13384;24.794;110.498;2022-10-31T14:32:38;11.50;;;8.00;;
25467;SDS011;13384;24.794;110.498;2022-10-31T14:35:12;10.82;;;7.47;;
25467;SDS011;13384;24.794;110.498;2022-10-31T14:49:27;8.90;;;7.78;;
25467;SDS011;13384;24.794;110.498;2022-10-31T14:52:00;11.15;;;8.18;;
25467;SDS011;13384;24.794;110.498;2022-10-31T14:54:37;9.73;;;7.55;;
25467;SDS011;13384;24.794;110.498;2022-10-31T14:57:15;11.57;;;7.55;;
25467;SDS011;13384;24.794;110.498;2022-10-31T15:00:06;10.27;;;7.68;;
25467;SDS011;13384;24.794;110.498;2022-10-31T15:05:27;10.60;;;7.72;;
25467;SDS011;13384;24.794;110.498;2022-10-31T15:08:01;10.90;;;8.25;;
25467;SDS011;13384;24.794;110.498;2022-10-31T15:10:36;9.63;;;7.53;;
25467;SDS011;13384;24.794;110.498;2022-10-31T15:13:25;11.02;;;7.70;;
25467;SDS011;13384;24.794;110.498;2022-10-31T15:15:57;8.98;;;7.28;;
25467;SDS011;13384;24.794;110.498;2022-10-31T15:18:58;10.05;;;7.63;;
25467;SDS011;13384;24.794;110.498;2022-10-31T15:21:34;9.65;;;7.30;;
25467;SDS011;13384;24.794;110.498;2022-10-31T15:24:11;10.00;;;7.50;;
25467;SDS011;13384;24.794;110.498;2022-10-31T15:26:48;10.48;;;7.35;;
25467;SDS011;13384;24.794;110.498;2022-10-31T15:29:31;12.18;;;7.43;;
25467;SDS011;13384;24.794;110.498;2022-10-31T15:32:19;10.55;;;6.97;;
25467;SDS011;13384;24.794;110.498;2022-10-31T15:37:27;10.18;;;7.10;;
25467;SDS011;13384;24.794;110.498;2022-10-31T15:40:05;9.05;;;6.82;;
25467;SDS011;13384;24.794;110.498;2022-10-31T15:45:21;10.02;;;7.82;;
25467;SDS011;13384;24.794;110.498;2022-10-31T15:47:57;9.30;;;7.40;;
25467;SDS011;13384;24.794;110.498;2022-10-31T15:50:51;9.45;;;7.40;;
25467;SDS011;13384;24.794;110.498;2022-10-31T15:53:45;10.02;;;7.70;;
25467;SDS011;13384;24.794;110.498;2022-10-31T15:56:28;10.65;;;8.35;;
25467;SDS011;13384;24.794;110.498;2022-10-31T15:59:05;11.68;;;8.25;;
25467;SDS011;13384;24.794;110.498;2022-10-31T16:02:07;12.45;;;7.78;;
25467;SDS011;13384;24.794;110.498;2022-10-31T16:04:54;9.32;;;7.35;;
25467;SDS011;13384;24.794;110.498;2022-10-31T16:07:28;10.10;;;7.43;;
25467;SDS011;13384;24.794;110.498;2022-10-31T16:10:00;10.65;;;7.75;;
25467;SDS011;13384;24.794;110.498;2022-10-31T16:12:46;10.50;;;7.50;;
25467;SDS011;13384;24.794;110.498;2022-10-31T16:15:18;9.68;;;7.35;;
25467;SDS011;13384;24.794;110.498;2022-10-31T16:17:50;10.52;;;7.72;;
25467;SDS011;13384;24.794;110.498;2022-10-31T16:20:47;10.13;;;8.00;;
25467;SDS011;13384;24.794;110.498;2022-10-31T16:23:22;10.63;;;7.30;;
25467;SDS011;13384;24.794;110.498;2022-10-31T16:28:26;10.75;;;7.05;;
25467;SDS011;13384;24.794;110.498;2022-10-31T16:31:11;9.25;;;7.10;;
25467;SDS011;13384;24.794;110.498;2022-10-31T16:33:44;9.35;;;7.18;;
25467;SDS011;13384;24.794;110.498;2022-10-31T16:39:15;8.63;;;7.25;;
25467;SDS011;13384;24.794;110.498;2022-10-31T16:41:48;10.02;;;7.57;;
25467;SDS011;13384;24.794;110.498;2022-10-31T16:44:25;10.38;;;7.20;;
25467;SDS011;13384;24.794;110.498;2022-10-31T16:49:40;8.95;;;7.32;;
25467;SDS011;13384;24.794;110.498;2022-10-31T16:52:16;8.65;;;7.10;;
25467;SDS011;13384;24.794;110.498;2022-10-31T16:54:48;10.20;;;7.68;;
25467;SDS011;13384;24.794;110.498;2022-10-31T16:57:40;11.95;;;7.40;;
25467;SDS011;13384;24.794;110.498;2022-10-31T17:00:17;9.20;;;7.15;;
25467;SDS011;13384;24.794;110.498;2022-10-31T17:02:55;10.63;;;7.47;;
25467;SDS011;13384;24.794;110.498;2022-10-31T17:05:27;9.98;;;7.60;;
25467;SDS011;13384;24.794;110.498;2022-10-31T17:07:59;10.90;;;7.57;;
25467;SDS011;13384;24.794;110.498;2022-10-31T17:10:31;9.10;;;7.30;;
25467;SDS011;13384;24.794;110.498;2022-10-31T17:13:27;8.95;;;7.13;;
25467;SDS011;13384;24.794;110.498;2022-10-31T17:16:02;10.65;;;7.50;;
25467;SDS011;13384;24.794;110.498;2022-10-31T17:18:34;11.38;;;8.20;;
25467;SDS011;13384;24.794;110.498;2022-10-31T17:21:05;9.75;;;7.40;;
25467;SDS011;13384;24.794;110.498;2022-10-31T17:23:44;8.95;;;7.07;;
25467;SDS011;13384;24.794;110.498;2022-10-31T17:26:15;9.57;;;7.93;;
25467;SDS011;13384;24.794;110.498;2022-10-31T17:28:47;12.48;;;7.63;;
25467;SDS011;13384;24.794;110.498;2022-10-31T17:31:22;11.38;;;7.82;;
25467;SDS011;13384;24.794;110.498;2022-10-31T17:33:58;10.93;;;8.38;;
25467;SDS011;13384;24.794;110.498;2022-10-31T17:36:31;10.35;;;6.97;;
25467;SDS011;13384;24.794;110.498;2022-10-31T17:39:22;10.23;;;7.28;;
25467;SDS011;13384;24.794;110.498;2022-10-31T17:41:53;11.32;;;7.70;;
25467;SDS011;13384;24.794;110.498;2022-10-31T17:44:45;10.23;;;7.28;;
25467;SDS011;13384;24.794;110.498;2022-10-31T17:47:17;9.77;;;7.45;;
25467;SDS011;13384;24.794;110.498;2022-10-31T17:49:48;8.90;;;7.20;;